Dilworth, Texas
Current Conditions -  °F | °C
As of 2:55 PM on Thursday 27 Nov 2014 (Local Time) from KT20 Reporting Station
Clear Clear  
Wind Chill: 67°   Ceiling: Unl
Heat Index: 67°   Visibility: 10mi
Dew Point: 32°   Wind: 3mph
Humidity: 28%   Direction: 50°NE
Pressure: 30.4"   Gusts: NA
Location:  29.481°N, 97.4305°W
Report Text: KT20 272055Z AUTO 05003KT 10SM CLR 19/00 A3040 RMK AO2 T01920002
Loading
Personal Weather Stations






























Interactive Weather Map New forecast layout! Learn more

10-Day Weather Forecast

Advertisements
Track Severe Weather on mobile